sensor_id;sensor_type;location;lat;lon;timestamp;P1;durP1;ratioP1;P2;durP2;ratioP2
16401;SDS011;8310;44.626;11.176;2023-04-01T00:00:06;19.55;;;16.27;;
16401;SDS011;8310;44.626;11.176;2023-04-01T00:02:34;19.25;;;17.15;;
16401;SDS011;8310;44.626;11.176;2023-04-01T00:05:02;21.80;;;17.33;;
16401;SDS011;8310;44.626;11.176;2023-04-01T00:07:33;19.20;;;15.90;;
16401;SDS011;8310;44.626;11.176;2023-04-01T00:10:02;18.60;;;16.40;;
16401;SDS011;8310;44.626;11.176;2023-04-01T00:12:31;18.50;;;15.25;;
16401;SDS011;8310;44.626;11.176;2023-04-01T00:15:00;20.17;;;15.57;;
16401;SDS011;8310;44.626;11.176;2023-04-01T00:17:28;17.65;;;15.80;;
16401;SDS011;8310;44.626;11.176;2023-04-01T00:19:56;16.75;;;15.05;;
16401;SDS011;8310;44.626;11.176;2023-04-01T00:22:24;16.65;;;15.07;;
16401;SDS011;8310;44.626;11.176;2023-04-01T00:24:54;17.55;;;14.73;;
16401;SDS011;8310;44.626;11.176;2023-04-01T00:27:22;19.55;;;15.27;;
16401;SDS011;8310;44.626;11.176;2023-04-01T00:29:49;18.27;;;15.30;;
16401;SDS011;8310;44.626;11.176;2023-04-01T00:32:17;20.77;;;16.10;;
16401;SDS011;8310;44.626;11.176;2023-04-01T00:34:49;18.15;;;15.95;;
16401;SDS011;8310;44.626;11.176;2023-04-01T00:37:18;17.80;;;15.98;;
16401;SDS011;8310;44.626;11.176;2023-04-01T00:39:46;19.55;;;16.75;;
16401;SDS011;8310;44.626;11.176;2023-04-01T00:42:16;20.08;;;16.08;;
16401;SDS011;8310;44.626;11.176;2023-04-01T00:44:45;18.73;;;16.27;;
16401;SDS011;8310;44.626;11.176;2023-04-01T00:47:14;17.40;;;15.25;;
16401;SDS011;8310;44.626;11.176;2023-04-01T00:49:43;23.02;;;16.73;;
16401;SDS011;8310;44.626;11.176;2023-04-01T00:52:14;19.58;;;16.33;;
16401;SDS011;8310;44.626;11.176;2023-04-01T00:54:45;21.73;;;16.35;;
16401;SDS011;8310;44.626;11.176;2023-04-01T00:57:17;19.73;;;16.83;;
16401;SDS011;8310;44.626;11.176;2023-04-01T00:59:51;18.70;;;16.48;;
16401;SDS011;8310;44.626;11.176;2023-04-01T01:02:21;19.40;;;16.08;;
16401;SDS011;8310;44.626;11.176;2023-04-01T01:04:49;16.83;;;15.07;;
16401;SDS011;8310;44.626;11.176;2023-04-01T01:07:20;16.05;;;14.32;;
16401;SDS011;8310;44.626;11.176;2023-04-01T01:09:57;17.70;;;15.80;;
16401;SDS011;8310;44.626;11.176;2023-04-01T01:12:31;18.27;;;15.88;;
16401;SDS011;8310;44.626;11.176;2023-04-01T01:15:07;17.83;;;15.52;;
16401;SDS011;8310;44.626;11.176;2023-04-01T01:17:46;18.23;;;15.00;;
16401;SDS011;8310;44.626;11.176;2023-04-01T01:23:41;16.85;;;15.05;;
16401;SDS011;8310;44.626;11.176;2023-04-01T01:26:35;17.27;;;15.57;;
16401;SDS011;8310;44.626;11.176;2023-04-01T01:29:14;18.17;;;15.80;;
16401;SDS011;8310;44.626;11.176;2023-04-01T01:32:05;18.40;;;15.80;;
16401;SDS011;8310;44.626;11.176;2023-04-01T01:34:40;20.50;;;16.83;;
16401;SDS011;8310;44.626;11.176;2023-04-01T01:37:16;18.85;;;16.67;;
16401;SDS011;8310;44.626;11.176;2023-04-01T01:39:53;17.58;;;15.88;;
16401;SDS011;8310;44.626;11.176;2023-04-01T01:42:25;19.20;;;15.57;;
16401;SDS011;8310;44.626;11.176;2023-04-01T01:44:54;15.75;;;14.15;;
16401;SDS011;8310;44.626;11.176;2023-04-01T01:47:24;17.73;;;15.93;;
16401;SDS011;8310;44.626;11.176;2023-04-01T01:49:53;19.88;;;17.83;;
16401;SDS011;8310;44.626;11.176;2023-04-01T01:52:24;19.52;;;17.40;;
16401;SDS011;8310;44.626;11.176;2023-04-01T01:54:55;21.42;;;17.45;;
16401;SDS011;8310;44.626;11.176;2023-04-01T01:57:25;22.70;;;17.77;;
16401;SDS011;8310;44.626;11.176;2023-04-01T01:59:55;21.50;;;17.88;;
16401;SDS011;8310;44.626;11.176;2023-04-01T02:02:26;20.38;;;17.73;;
16401;SDS011;8310;44.626;11.176;2023-04-01T02:04:56;26.73;;;18.75;;
16401;SDS011;8310;44.626;11.176;2023-04-01T02:07:27;19.83;;;17.63;;
16401;SDS011;8310;44.626;11.176;2023-04-01T02:09:58;19.85;;;17.77;;
16401;SDS011;8310;44.626;11.176;2023-04-01T02:12:26;18.85;;;16.30;;
16401;SDS011;8310;44.626;11.176;2023-04-01T02:14:57;20.55;;;18.20;;
16401;SDS011;8310;44.626;11.176;2023-04-01T02:17:29;21.83;;;18.70;;
16401;SDS011;8310;44.626;11.176;2023-04-01T02:19:58;25.27;;;19.33;;
16401;SDS011;8310;44.626;11.176;2023-04-01T02:22:31;23.85;;;17.60;;
16401;SDS011;8310;44.626;11.176;2023-04-01T02:25:04;23.70;;;19.45;;
16401;SDS011;8310;44.626;11.176;2023-04-01T02:27:34;25.75;;;20.67;;
16401;SDS011;8310;44.626;11.176;2023-04-01T02:30:04;22.05;;;19.38;;
16401;SDS011;8310;44.626;11.176;2023-04-01T02:32:34;22.77;;;19.45;;
16401;SDS011;8310;44.626;11.176;2023-04-01T02:35:05;21.60;;;19.27;;
16401;SDS011;8310;44.626;11.176;2023-04-01T02:37:37;23.73;;;20.10;;
16401;SDS011;8310;44.626;11.176;2023-04-01T02:40:08;26.52;;;21.30;;
16401;SDS011;8310;44.626;11.176;2023-04-01T02:42:38;27.10;;;22.25;;
16401;SDS011;8310;44.626;11.176;2023-04-01T02:45:07;28.13;;;21.80;;
16401;SDS011;8310;44.626;11.176;2023-04-01T02:47:38;29.92;;;24.50;;
16401;SDS011;8310;44.626;11.176;2023-04-01T02:50:07;25.23;;;22.52;;
16401;SDS011;8310;44.626;11.176;2023-04-01T02:52:37;27.67;;;21.95;;
16401;SDS011;8310;44.626;11.176;2023-04-01T02:55:05;23.80;;;20.95;;
16401;SDS011;8310;44.626;11.176;2023-04-01T02:57:33;25.88;;;21.77;;
16401;SDS011;8310;44.626;11.176;2023-04-01T03:00:01;27.50;;;21.60;;
16401;SDS011;8310;44.626;11.176;2023-04-01T03:02:37;26.75;;;21.45;;
16401;SDS011;8310;44.626;11.176;2023-04-01T03:05:05;26.95;;;22.05;;
16401;SDS011;8310;44.626;11.176;2023-04-01T03:07:34;28.25;;;21.98;;
16401;SDS011;8310;44.626;11.176;2023-04-01T03:10:04;25.42;;;20.92;;
16401;SDS011;8310;44.626;11.176;2023-04-01T03:12:32;24.33;;;20.08;;
16401;SDS011;8310;44.626;11.176;2023-04-01T03:15:00;22.67;;;19.40;;
16401;SDS011;8310;44.626;11.176;2023-04-01T03:17:27;22.45;;;19.67;;
16401;SDS011;8310;44.626;11.176;2023-04-01T03:19:55;24.48;;;19.70;;
16401;SDS011;8310;44.626;11.176;2023-04-01T03:22:24;24.95;;;19.08;;
16401;SDS011;8310;44.626;11.176;2023-04-01T03:24:52;21.92;;;18.73;;
16401;SDS011;8310;44.626;11.176;2023-04-01T03:27:22;19.85;;;17.83;;
16401;SDS011;8310;44.626;11.176;2023-04-01T03:29:49;20.73;;;18.00;;
16401;SDS011;8310;44.626;11.176;2023-04-01T03:32:17;20.70;;;17.60;;
16401;SDS011;8310;44.626;11.176;2023-04-01T03:34:45;20.35;;;17.00;;
16401;SDS011;8310;44.626;11.176;2023-04-01T03:37:13;21.77;;;18.20;;
16401;SDS011;8310;44.626;11.176;2023-04-01T03:39:40;20.48;;;16.40;;
16401;SDS011;8310;44.626;11.176;2023-04-01T03:42:12;22.92;;;17.25;;
16401;SDS011;8310;44.626;11.176;2023-04-01T03:44:46;25.10;;;17.50;;
16401;SDS011;8310;44.626;11.176;2023-04-01T03:47:14;18.00;;;16.10;;
16401;SDS011;8310;44.626;11.176;2023-04-01T03:49:42;21.58;;;16.63;;
16401;SDS011;8310;44.626;11.176;2023-04-01T03:52:09;18.52;;;16.63;;
16401;SDS011;8310;44.626;11.176;2023-04-01T03:54:39;19.67;;;17.58;;
16401;SDS011;8310;44.626;11.176;2023-04-01T03:57:08;23.20;;;17.05;;
16401;SDS011;8310;44.626;11.176;2023-04-01T03:59:35;20.20;;;16.65;;
16401;SDS011;8310;44.626;11.176;2023-04-01T04:02:05;19.13;;;16.30;;
16401;SDS011;8310;44.626;11.176;2023-04-01T04:04:34;17.15;;;15.38;;
16401;SDS011;8310;44.626;11.176;2023-04-01T04:07:02;19.45;;;16.27;;
16401;SDS011;8310;44.626;11.176;2023-04-01T04:09:31;19.20;;;16.48;;
16401;SDS011;8310;44.626;11.176;2023-04-01T04:11:58;18.63;;;15.57;;
16401;SDS011;8310;44.626;11.176;2023-04-01T04:14:27;18.75;;;16.85;;
16401;SDS011;8310;44.626;11.176;2023-04-01T04:16:55;16.75;;;15.00;;
16401;SDS011;8310;44.626;11.176;2023-04-01T04:19:24;16.33;;;14.63;;
16401;SDS011;8310;44.626;11.176;2023-04-01T04:21:52;18.00;;;15.32;;
16401;SDS011;8310;44.626;11.176;2023-04-01T04:24:26;17.13;;;15.43;;
16401;SDS011;8310;44.626;11.176;2023-04-01T04:26:54;16.90;;;15.20;;
16401;SDS011;8310;44.626;11.176;2023-04-01T04:29:21;17.17;;;15.38;;
16401;SDS011;8310;44.626;11.176;2023-04-01T04:31:49;19.65;;;15.32;;
16401;SDS011;8310;44.626;11.176;2023-04-01T04:34:17;17.55;;;14.80;;
16401;SDS011;8310;44.626;11.176;2023-04-01T04:36:46;16.42;;;13.95;;
16401;SDS011;8310;44.626;11.176;2023-04-01T04:39:15;17.10;;;14.07;;
16401;SDS011;8310;44.626;11.176;2023-04-01T04:41:42;16.95;;;13.57;;
16401;SDS011;8310;44.626;11.176;2023-04-01T04:44:11;16.58;;;14.77;;
16401;SDS011;8310;44.626;11.176;2023-04-01T04:46:43;18.85;;;14.38;;
16401;SDS011;8310;44.626;11.176;2023-04-01T04:49:11;16.27;;;13.98;;
16401;SDS011;8310;44.626;11.176;2023-04-01T04:51:42;18.38;;;14.90;;
16401;SDS011;8310;44.626;11.176;2023-04-01T04:54:11;16.75;;;14.82;;
16401;SDS011;8310;44.626;11.176;2023-04-01T04:56:40;17.40;;;15.45;;
16401;SDS011;8310;44.626;11.176;2023-04-01T04:59:08;18.75;;;15.25;;
16401;SDS011;8310;44.626;11.176;2023-04-01T05:01:36;19.10;;;16.48;;
16401;SDS011;8310;44.626;11.176;2023-04-01T05:04:03;19.65;;;16.40;;
16401;SDS011;8310;44.626;11.176;2023-04-01T05:06:31;20.23;;;15.65;;
16401;SDS011;8310;44.626;11.176;2023-04-01T05:08:59;16.30;;;14.60;;
16401;SDS011;8310;44.626;11.176;2023-04-01T05:11:29;16.80;;;15.00;;
16401;SDS011;8310;44.626;11.176;2023-04-01T05:13:57;17.15;;;14.82;;
16401;SDS011;8310;44.626;11.176;2023-04-01T05:16:26;20.38;;;17.58;;
16401;SDS011;8310;44.626;11.176;2023-04-01T05:18:53;17.73;;;15.88;;
16401;SDS011;8310;44.626;11.176;2023-04-01T05:21:22;16.67;;;14.70;;
16401;SDS011;8310;44.626;11.176;2023-04-01T05:23:49;15.48;;;13.98;;
16401;SDS011;8310;44.626;11.176;2023-04-01T05:26:18;16.58;;;14.93;;
16401;SDS011;8310;44.626;11.176;2023-04-01T05:28:47;14.45;;;12.95;;
16401;SDS011;8310;44.626;11.176;2023-04-01T05:31:15;14.25;;;12.75;;
16401;SDS011;8310;44.626;11.176;2023-04-01T05:33:43;13.45;;;12.05;;
16401;SDS011;8310;44.626;11.176;2023-04-01T05:36:12;11.95;;;10.57;;
16401;SDS011;8310;44.626;11.176;2023-04-01T05:38:41;12.15;;;10.20;;
16401;SDS011;8310;44.626;11.176;2023-04-01T05:41:10;12.15;;;10.50;;
16401;SDS011;8310;44.626;11.176;2023-04-01T05:43:39;11.27;;;10.18;;
16401;SDS011;8310;44.626;11.176;2023-04-01T05:46:08;13.13;;;11.25;;
16401;SDS011;8310;44.626;11.176;2023-04-01T05:48:36;10.90;;;9.75;;
16401;SDS011;8310;44.626;11.176;2023-04-01T05:51:04;11.90;;;10.57;;
16401;SDS011;8310;44.626;11.176;2023-04-01T05:53:32;13.60;;;11.98;;
16401;SDS011;8310;44.626;11.176;2023-04-01T05:56:02;13.00;;;11.80;;
16401;SDS011;8310;44.626;11.176;2023-04-01T05:58:30;13.82;;;12.48;;
16401;SDS011;8310;44.626;11.176;2023-04-01T06:01:02;14.05;;;12.65;;
16401;SDS011;8310;44.626;11.176;2023-04-01T06:03:34;15.50;;;13.25;;
16401;SDS011;8310;44.626;11.176;2023-04-01T06:06:01;15.02;;;13.52;;
16401;SDS011;8310;44.626;11.176;2023-04-01T06:08:30;15.38;;;13.73;;
16401;SDS011;8310;44.626;11.176;2023-04-01T06:11:03;19.05;;;14.98;;
16401;SDS011;8310;44.626;11.176;2023-04-01T06:13:48;17.52;;;15.73;;
16401;SDS011;8310;44.626;11.176;2023-04-01T06:16:30;20.23;;;17.80;;
16401;SDS011;8310;44.626;11.176;2023-04-01T06:19:09;20.23;;;17.23;;
16401;SDS011;8310;44.626;11.176;2023-04-01T06:27:58;25.48;;;21.13;;
16401;SDS011;8310;44.626;11.176;2023-04-01T06:30:37;27.02;;;23.08;;
16401;SDS011;8310;44.626;11.176;2023-04-01T06:39:43;28.15;;;22.23;;
16401;SDS011;8310;44.626;11.176;2023-04-01T06:42:42;25.35;;;21.17;;
16401;SDS011;8310;44.626;11.176;2023-04-01T06:45:31;23.92;;;21.27;;
16401;SDS011;8310;44.626;11.176;2023-04-01T06:48:26;23.45;;;20.88;;
16401;SDS011;8310;44.626;11.176;2023-04-01T06:51:08;24.10;;;20.08;;
16401;SDS011;8310;44.626;11.176;2023-04-01T06:53:51;27.85;;;20.77;;
16401;SDS011;8310;44.626;11.176;2023-04-01T06:56:24;22.55;;;19.90;;
16401;SDS011;8310;44.626;11.176;2023-04-01T06:58:55;22.05;;;19.95;;
16401;SDS011;8310;44.626;11.176;2023-04-01T07:01:28;20.77;;;18.52;;
16401;SDS011;8310;44.626;11.176;2023-04-01T07:04:04;21.13;;;18.40;;
16401;SDS011;8310;44.626;11.176;2023-04-01T07:06:39;20.45;;;17.92;;
16401;SDS011;8310;44.626;11.176;2023-04-01T07:09:16;20.17;;;17.63;;
16401;SDS011;8310;44.626;11.176;2023-04-01T07:11:48;21.30;;;17.70;;
16401;SDS011;8310;44.626;11.176;2023-04-01T07:14:19;19.75;;;17.67;;
16401;SDS011;8310;44.626;11.176;2023-04-01T07:16:51;23.13;;;17.17;;
16401;SDS011;8310;44.626;11.176;2023-04-01T07:19:26;21.33;;;17.23;;
16401;SDS011;8310;44.626;11.176;2023-04-01T07:22:00;20.38;;;16.88;;
16401;SDS011;8310;44.626;11.176;2023-04-01T07:24:34;25.23;;;16.92;;
16401;SDS011;8310;44.626;11.176;2023-04-01T07:27:05;19.15;;;16.50;;
16401;SDS011;8310;44.626;11.176;2023-04-01T07:29:36;17.48;;;15.73;;
16401;SDS011;8310;44.626;11.176;2023-04-01T07:34:51;21.52;;;16.90;;
16401;SDS011;8310;44.626;11.176;2023-04-01T07:37:30;19.58;;;15.98;;
16401;SDS011;8310;44.626;11.176;2023-04-01T07:40:10;19.25;;;16.63;;
16401;SDS011;8310;44.626;11.176;2023-04-01T07:42:56;19.13;;;16.02;;
16401;SDS011;8310;44.626;11.176;2023-04-01T07:45:42;17.60;;;15.63;;
16401;SDS011;8310;44.626;11.176;2023-04-01T07:48:21;17.17;;;14.57;;
16401;SDS011;8310;44.626;11.176;2023-04-01T07:50:54;18.88;;;15.35;;
16401;SDS011;8310;44.626;11.176;2023-04-01T07:53:27;17.73;;;15.35;;
16401;SDS011;8310;44.626;11.176;2023-04-01T07:56:05;17.75;;;15.23;;
16401;SDS011;8310;44.626;11.176;2023-04-01T07:58:38;17.35;;;15.55;;
16401;SDS011;8310;44.626;11.176;2023-04-01T08:01:17;16.80;;;15.10;;
16401;SDS011;8310;44.626;11.176;2023-04-01T08:04:01;18.92;;;15.32;;
16401;SDS011;8310;44.626;11.176;2023-04-01T08:06:51;17.65;;;14.57;;
16401;SDS011;8310;44.626;11.176;2023-04-01T08:09:25;16.95;;;14.10;;
16401;SDS011;8310;44.626;11.176;2023-04-01T08:12:05;15.65;;;14.05;;
16401;SDS011;8310;44.626;11.176;2023-04-01T08:14:46;16.50;;;12.90;;
16401;SDS011;8310;44.626;11.176;2023-04-01T08:17:20;14.98;;;12.23;;
16401;SDS011;8310;44.626;11.176;2023-04-01T08:19:58;14.38;;;11.95;;
16401;SDS011;8310;44.626;11.176;2023-04-01T08:22:40;15.88;;;12.15;;
16401;SDS011;8310;44.626;11.176;2023-04-01T08:25:11;13.63;;;12.18;;
16401;SDS011;8310;44.626;11.176;2023-04-01T08:27:46;13.13;;;11.75;;
16401;SDS011;8310;44.626;11.176;2023-04-01T08:30:19;14.75;;;11.40;;
16401;SDS011;8310;44.626;11.176;2023-04-01T08:32:51;13.05;;;11.82;;
16401;SDS011;8310;44.626;11.176;2023-04-01T08:35:27;13.90;;;11.98;;
16401;SDS011;8310;44.626;11.176;2023-04-01T08:37:59;15.02;;;12.10;;
16401;SDS011;8310;44.626;11.176;2023-04-01T08:40:39;14.30;;;11.65;;
16401;SDS011;8310;44.626;11.176;2023-04-01T08:43:24;13.43;;;12.10;;
16401;SDS011;8310;44.626;11.176;2023-04-01T08:46:17;15.05;;;12.23;;
16401;SDS011;8310;44.626;11.176;2023-04-01T08:48:59;13.88;;;12.48;;
16401;SDS011;8310;44.626;11.176;2023-04-01T08:54:38;13.02;;;11.77;;
16401;SDS011;8310;44.626;11.176;2023-04-01T08:57:15;14.68;;;13.18;;
16401;SDS011;8310;44.626;11.176;2023-04-01T08:59:57;13.77;;;12.25;;
16401;SDS011;8310;44.626;11.176;2023-04-01T09:02:39;13.50;;;12.10;;
16401;SDS011;8310;44.626;11.176;2023-04-01T09:08:09;12.75;;;11.55;;
16401;SDS011;8310;44.626;11.176;2023-04-01T09:11:00;14.20;;;12.75;;
16401;SDS011;8310;44.626;11.176;2023-04-01T09:13:37;13.20;;;11.85;;
16401;SDS011;8310;44.626;11.176;2023-04-01T09:19:33;12.65;;;11.40;;
16401;SDS011;8310;44.626;11.176;2023-04-01T09:22:22;12.55;;;11.40;;
16401;SDS011;8310;44.626;11.176;2023-04-01T09:25:06;12.40;;;11.20;;
16401;SDS011;8310;44.626;11.176;2023-04-01T09:27:54;11.98;;;10.88;;
16401;SDS011;8310;44.626;11.176;2023-04-01T09:30:34;12.27;;;11.10;;
16401;SDS011;8310;44.626;11.176;2023-04-01T09:39:25;13.27;;;10.80;;
16401;SDS011;8310;44.626;11.176;2023-04-01T09:42:14;10.73;;;9.63;;
16401;SDS011;8310;44.626;11.176;2023-04-01T09:44:57;12.23;;;9.63;;
16401;SDS011;8310;44.626;11.176;2023-04-01T09:47:35;10.77;;;9.77;;
16401;SDS011;8310;44.626;11.176;2023-04-01T09:50:29;11.13;;;10.02;;
16401;SDS011;8310;44.626;11.176;2023-04-01T09:56:08;9.95;;;9.02;;
16401;SDS011;8310;44.626;11.176;2023-04-01T10:02:11;10.18;;;9.18;;
16401;SDS011;8310;44.626;11.176;2023-04-01T10:05:10;10.60;;;9.00;;
16401;SDS011;8310;44.626;11.176;2023-04-01T10:08:23;9.73;;;8.38;;
16401;SDS011;8310;44.626;11.176;2023-04-01T10:14:34;6.57;;;5.70;;
16401;SDS011;8310;44.626;11.176;2023-04-01T10:17:28;9.02;;;7.18;;
16401;SDS011;8310;44.626;11.176;2023-04-01T10:20:27;8.73;;;7.97;;
16401;SDS011;8310;44.626;11.176;2023-04-01T10:42:22;6.60;;;6.13;;
16401;SDS011;8310;44.626;11.176;2023-04-01T10:45:28;6.95;;;5.82;;
16401;SDS011;8310;44.626;11.176;2023-04-01T10:48:40;6.63;;;6.03;;
16401;SDS011;8310;44.626;11.176;2023-04-01T10:54:49;7.55;;;5.13;;
16401;SDS011;8310;44.626;11.176;2023-04-01T10:57:43;4.85;;;4.43;;
16401;SDS011;8310;44.626;11.176;2023-04-01T11:01:02;5.47;;;4.97;;
16401;SDS011;8310;44.626;11.176;2023-04-01T11:04:04;4.65;;;4.35;;
16401;SDS011;8310;44.626;11.176;2023-04-01T11:14:01;4.05;;;3.72;;
16401;SDS011;8310;44.626;11.176;2023-04-01T11:20:43;4.80;;;3.10;;
16401;SDS011;8310;44.626;11.176;2023-04-01T11:26:51;4.13;;;3.83;;
16401;SDS011;8310;44.626;11.176;2023-04-01T11:29:36;3.90;;;3.60;;
16401;SDS011;8310;44.626;11.176;2023-04-01T11:32:39;3.08;;;2.92;;
16401;SDS011;8310;44.626;11.176;2023-04-01T11:38:35;2.95;;;2.75;;
16401;SDS011;8310;44.626;11.176;2023-04-01T11:41:24;2.85;;;2.65;;
16401;SDS011;8310;44.626;11.176;2023-04-01T11:44:12;3.13;;;2.92;;
16401;SDS011;8310;44.626;11.176;2023-04-01T11:46:51;3.08;;;2.78;;
16401;SDS011;8310;44.626;11.176;2023-04-01T11:49:37;4.70;;;2.90;;
16401;SDS011;8310;44.626;11.176;2023-04-01T11:52:16;2.53;;;2.20;;
16401;SDS011;8310;44.626;11.176;2023-04-01T11:54:56;3.13;;;2.78;;
16401;SDS011;8310;44.626;11.176;2023-04-01T11:57:46;3.15;;;2.38;;
16401;SDS011;8310;44.626;11.176;2023-04-01T12:00:26;2.63;;;2.47;;
16401;SDS011;8310;44.626;11.176;2023-04-01T12:03:15;2.60;;;2.40;;
16401;SDS011;8310;44.626;11.176;2023-04-01T12:06:02;2.53;;;2.33;;
16401;SDS011;8310;44.626;11.176;2023-04-01T12:08:38;2.72;;;2.55;;
16401;SDS011;8310;44.626;11.176;2023-04-01T12:11:15;2.80;;;2.60;;
16401;SDS011;8310;44.626;11.176;2023-04-01T12:13:51;2.72;;;2.58;;
16401;SDS011;8310;44.626;11.176;2023-04-01T12:16:46;2.78;;;2.58;;
16401;SDS011;8310;44.626;11.176;2023-04-01T12:19:32;2.58;;;2.38;;
16401;SDS011;8310;44.626;11.176;2023-04-01T12:22:10;2.70;;;2.60;;
16401;SDS011;8310;44.626;11.176;2023-04-01T12:24:52;2.15;;;2.05;;
16401;SDS011;8310;44.626;11.176;2023-04-01T12:27:41;2.33;;;2.20;;
16401;SDS011;8310;44.626;11.176;2023-04-01T12:30:25;2.80;;;2.70;;
16401;SDS011;8310;44.626;11.176;2023-04-01T12:36:30;3.33;;;3.03;;
16401;SDS011;8310;44.626;11.176;2023-04-01T12:42:17;3.00;;;2.80;;
16401;SDS011;8310;44.626;11.176;2023-04-01T12:45:02;3.17;;;2.97;;
16401;SDS011;8310;44.626;11.176;2023-04-01T12:47:54;3.17;;;2.97;;
16401;SDS011;8310;44.626;11.176;2023-04-01T12:56:49;3.72;;;3.50;;
16401;SDS011;8310;44.626;11.176;2023-04-01T12:59:33;3.10;;;2.83;;
16401;SDS011;8310;44.626;11.176;2023-04-01T13:02:13;3.60;;;3.15;;
16401;SDS011;8310;44.626;11.176;2023-04-01T13:04:56;2.90;;;2.70;;
16401;SDS011;8310;44.626;11.176;2023-04-01T13:07:58;3.38;;;3.13;;
16401;SDS011;8310;44.626;11.176;2023-04-01T13:16:39;3.00;;;2.80;;
16401;SDS011;8310;44.626;11.176;2023-04-01T13:19:15;3.25;;;3.05;;
16401;SDS011;8310;44.626;11.176;2023-04-01T13:21:53;3.60;;;3.40;;
16401;SDS011;8310;44.626;11.176;2023-04-01T13:24:29;2.50;;;2.40;;
16401;SDS011;8310;44.626;11.176;2023-04-01T13:27:07;2.50;;;2.30;;
16401;SDS011;8310;44.626;11.176;2023-04-01T13:29:43;2.35;;;2.25;;
16401;SDS011;8310;44.626;11.176;2023-04-01T13:32:29;2.83;;;2.63;;
16401;SDS011;8310;44.626;11.176;2023-04-01T13:35:08;4.43;;;2.60;;
16401;SDS011;8310;44.626;11.176;2023-04-01T13:37:49;2.75;;;2.60;;
16401;SDS011;8310;44.626;11.176;2023-04-01T13:40:34;2.20;;;2.10;;
16401;SDS011;8310;44.626;11.176;2023-04-01T13:43:11;2.45;;;2.22;;
16401;SDS011;8310;44.626;11.176;2023-04-01T13:45:56;3.78;;;1.73;;
16401;SDS011;8310;44.626;11.176;2023-04-01T13:48:38;2.10;;;1.90;;
16401;SDS011;8310;44.626;11.176;2023-04-01T13:51:20;2.20;;;1.90;;
16401;SDS011;8310;44.626;11.176;2023-04-01T13:57:17;1.70;;;1.60;;
16401;SDS011;8310;44.626;11.176;2023-04-01T14:00:15;3.00;;;2.00;;
16401;SDS011;8310;44.626;11.176;2023-04-01T14:02:56;1.35;;;1.35;;
16401;SDS011;8310;44.626;11.176;2023-04-01T14:08:56;1.33;;;1.30;;
16401;SDS011;8310;44.626;11.176;2023-04-01T14:11:39;2.30;;;2.10;;
16401;SDS011;8310;44.626;11.176;2023-04-01T14:14:18;2.13;;;2.03;;
16401;SDS011;8310;44.626;11.176;2023-04-01T14:20:02;1.30;;;1.30;;
16401;SDS011;8310;44.626;11.176;2023-04-01T14:22:56;1.40;;;1.38;;
16401;SDS011;8310;44.626;11.176;2023-04-01T14:28:37;0.88;;;0.88;;
16401;SDS011;8310;44.626;11.176;2023-04-01T14:34:15;0.63;;;0.63;;
16401;SDS011;8310;44.626;11.176;2023-04-01T14:36:56;0.55;;;0.55;;
16401;SDS011;8310;44.626;11.176;2023-04-01T14:39:39;0.60;;;0.60;;
16401;SDS011;8310;44.626;11.176;2023-04-01T14:42:33;0.63;;;0.63;;
16401;SDS011;8310;44.626;11.176;2023-04-01T14:45:22;0.43;;;0.43;;
16401;SDS011;8310;44.626;11.176;2023-04-01T14:48:05;0.50;;;0.50;;
16401;SDS011;8310;44.626;11.176;2023-04-01T14:50:44;0.45;;;0.32;;
16401;SDS011;8310;44.626;11.176;2023-04-01T14:53:16;0.85;;;0.20;;
16401;SDS011;8310;44.626;11.176;2023-04-01T14:55:55;1.40;;;0.52;;
16401;SDS011;8310;44.626;11.176;2023-04-01T14:58:25;0.30;;;0.30;;
16401;SDS011;8310;44.626;11.176;2023-04-01T15:01:11;0.30;;;0.30;;
16401;SDS011;8310;44.626;11.176;2023-04-01T15:03:48;0.43;;;0.43;;
16401;SDS011;8310;44.626;11.176;2023-04-01T15:09:33;0.10;;;0.10;;
16401;SDS011;8310;44.626;11.176;2023-04-01T15:12:07;2.30;;;0.35;;
16401;SDS011;8310;44.626;11.176;2023-04-01T15:14:47;3.63;;;0.70;;
16401;SDS011;8310;44.626;11.176;2023-04-01T15:17:33;0.55;;;0.30;;
16401;SDS011;8310;44.626;11.176;2023-04-01T15:20:13;0.98;;;0.10;;
16401;SDS011;8310;44.626;11.176;2023-04-01T15:23:26;0.13;;;0.13;;
16401;SDS011;8310;44.626;11.176;2023-04-01T15:26:13;0.32;;;0.20;;
16401;SDS011;8310;44.626;11.176;2023-04-01T15:28:58;0.32;;;0.32;;
16401;SDS011;8310;44.626;11.176;2023-04-01T15:31:45;1.65;;;0.32;;
16401;SDS011;8310;44.626;11.176;2023-04-01T15:34:21;0.63;;;0.30;;
16401;SDS011;8310;44.626;11.176;2023-04-01T15:36:56;6.47;;;1.13;;
16401;SDS011;8310;44.626;11.176;2023-04-01T15:39:35;0.73;;;0.38;;
16401;SDS011;8310;44.626;11.176;2023-04-01T15:42:19;0.30;;;0.30;;
16401;SDS011;8310;44.626;11.176;2023-04-01T15:45:01;0.30;;;0.30;;
16401;SDS011;8310;44.626;11.176;2023-04-01T15:47:41;1.30;;;0.28;;
16401;SDS011;8310;44.626;11.176;2023-04-01T15:53:19;0.43;;;0.43;;
16401;SDS011;8310;44.626;11.176;2023-04-01T15:55:54;0.32;;;0.20;;
16401;SDS011;8310;44.626;11.176;2023-04-01T16:01:17;0.30;;;0.30;;
16401;SDS011;8310;44.626;11.176;2023-04-01T16:03:57;0.40;;;0.40;;
16401;SDS011;8310;44.626;11.176;2023-04-01T16:06:44;0.28;;;0.28;;
16401;SDS011;8310;44.626;11.176;2023-04-01T16:09:34;0.55;;;0.55;;
16401;SDS011;8310;44.626;11.176;2023-04-01T16:12:21;0.20;;;0.20;;
16401;SDS011;8310;44.626;11.176;2023-04-01T16:15:02;0.17;;;0.17;;
16401;SDS011;8310;44.626;11.176;2023-04-01T16:17:56;0.70;;;0.30;;
16401;SDS011;8310;44.626;11.176;2023-04-01T16:20:40;0.40;;;0.30;;
16401;SDS011;8310;44.626;11.176;2023-04-01T16:23:14;3.58;;;0.57;;
16401;SDS011;8310;44.626;11.176;2023-04-01T16:25:51;0.20;;;0.20;;
16401;SDS011;8310;44.626;11.176;2023-04-01T16:28:27;0.40;;;0.40;;
16401;SDS011;8310;44.626;11.176;2023-04-01T16:31:03;2.80;;;1.85;;
16401;SDS011;8310;44.626;11.176;2023-04-01T16:33:40;0.70;;;0.70;;
16401;SDS011;8310;44.626;11.176;2023-04-01T16:36:17;0.47;;;0.47;;
16401;SDS011;8310;44.626;11.176;2023-04-01T16:38:52;0.82;;;0.57;;
16401;SDS011;8310;44.626;11.176;2023-04-01T16:41:34;1.05;;;0.30;;
16401;SDS011;8310;44.626;11.176;2023-04-01T16:44:13;0.52;;;0.52;;
16401;SDS011;8310;44.626;11.176;2023-04-01T16:46:49;2.00;;;1.90;;
16401;SDS011;8310;44.626;11.176;2023-04-01T16:49:27;2.90;;;1.27;;
16401;SDS011;8310;44.626;11.176;2023-04-01T16:52:03;3.25;;;1.60;;
16401;SDS011;8310;44.626;11.176;2023-04-01T16:54:41;4.10;;;1.80;;
16401;SDS011;8310;44.626;11.176;2023-04-01T16:57:17;2.45;;;2.10;;
16401;SDS011;8310;44.626;11.176;2023-04-01T16:59:47;3.67;;;2.40;;
16401;SDS011;8310;44.626;11.176;2023-04-01T17:02:24;4.00;;;2.63;;
16401;SDS011;8310;44.626;11.176;2023-04-01T17:04:58;3.22;;;2.08;;
16401;SDS011;8310;44.626;11.176;2023-04-01T17:07:30;3.97;;;2.30;;
16401;SDS011;8310;44.626;11.176;2023-04-01T17:10:16;4.70;;;2.42;;
16401;SDS011;8310;44.626;11.176;2023-04-01T17:13:23;3.53;;;2.15;;
16401;SDS011;8310;44.626;11.176;2023-04-01T17:16:20;4.10;;;2.20;;
16401;SDS011;8310;44.626;11.176;2023-04-01T17:18:59;2.47;;;2.05;;
16401;SDS011;8310;44.626;11.176;2023-04-01T17:21:49;5.82;;;3.17;;
16401;SDS011;8310;44.626;11.176;2023-04-01T17:24:30;3.85;;;2.17;;
16401;SDS011;8310;44.626;11.176;2023-04-01T17:27:10;5.22;;;1.88;;
16401;SDS011;8310;44.626;11.176;2023-04-01T17:29:59;3.28;;;1.90;;
16401;SDS011;8310;44.626;11.176;2023-04-01T17:32:40;4.97;;;1.92;;
16401;SDS011;8310;44.626;11.176;2023-04-01T17:35:20;7.10;;;2.33;;